Wingate, Indiana
Current Conditions -  °F | °C
As of 1:54 PM on Monday 20 Oct 2014 (Local Time) from KLAF Reporting Station
Clear Clear  
Wind Chill: 18°   Ceiling: Unl
Heat Index: 18°   Visibility: 10mi
Dew Point:   Wind: 10mph
Humidity: 56%   Direction: 240°WSW
Pressure: 29.83"   Gusts: 21mph
Location:  40.17°N, 87.07°W
Report Text: KLAF 201754Z 24009G18KT 10SM CLR 18/09 A2983 RMK AO2 SLP102 60000 T01780089 10178 20106 58016
Loading
Personal Weather Stations






























Interactive Weather Map
Tropical Storm Tracking
New forecast layout! Learn more

10-Day Weather Forecast

Advertisements
Track Severe Weather on mobile